HESC

St Catherine International Airport

Egypt
METAR HESC 222100Z 35009KT CAVOK 11/05 Q1019 NOSIG
Observed Flight Rules
Apr-22 @ 21:00 UTC (43 minutes ago) Visual Flight Rules
Wind Visibility Clouds
350° at 9 knots 10,000+ meters
  • Clear skies
Temperatures Readings
Current 11°C / 52°F
Dewpoint 5°C / 41°F
Humidity 67%
Altimeter 30.09" Hg
Pressure 1019 hPa
Elevation 1332
METAR HESC 222100Z 35009KT CAVOK 11/05 Q1019 NOSIG
Observed Flight Rules
Apr-22 @ 21:00 UTC
(43 minutes ago)
VFR
Wind Visibility
350° at 9 knots 10,000+ meters
Clouds
  • Clear skies
Temperature Dewpoint
11°C / 52°F 5°C / 41°F
Humidity Altimeter Pressure
67% 30.09" Hg 1019 hPa